DW7280 Weather Reports


Display with metric or nautical units.
time (UTC)temp
F
wind
direction
speed
MPH
gust
MPH
rain 1hr
in
rain 24hr
in
rain mn
in
humidity
%
barometer
mb
20190817130505 71 331 0.0 1.0 0.00 0.00 0.00 95 1017.3
20190817130004 70 331 0.0 1.0 0.00 0.00 0.00 95 1017.2
20190817125505 70 331 0.0 1.0 0.00 0.00 0.00 96 1017.1
20190817125005 69 0 0.0 0.0 0.00 0.00 0.00 96 1017.0
20190817124504 69 326 0.0 2.0 0.00 0.00 0.00 96 1017.0
20190817124005 68 326 0.0 2.0 0.00 0.00 0.00 97 1016.9
20190817123504 68 273 0.0 1.0 0.00 0.00 0.00 97 1016.9
20190817123004 68 273 0.0 2.0 0.00 0.00 0.00 97 1016.7
20190817122505 67 273 0.0 2.0 0.00 0.00 0.00 97 1016.4
20190817122004 67 273 0.0 2.0 0.00 0.00 0.00 97 1016.4
20190817121505 67 273 0.0 2.0 0.00 0.00 0.00 97 1016.2
20190817121005 67 273 0.0 2.0 0.00 0.00 0.00 97 1016.4
20190817120504 66 273 0.0 2.0 0.00 0.00 0.00 97 1016.5
20190817120006 66 0 0.0 0.0 0.00 0.00 0.00 97 1016.6
20190817115505 66 0 0.0 0.0 0.00 0.00 0.00 97 1016.7
20190817115005 66 273 0.0 3.0 0.00 0.00 0.00 97 1016.8
20190817114505 66 273 0.0 3.0 0.00 0.00 0.00 97 1016.4
20190817114004 66 273 0.0 2.0 0.00 0.00 0.00 97 1016.2
20190817113505 66 273 0.0 3.0 0.00 0.00 0.00 97 1016.0
20190817113004 66 273 0.0 3.0 0.00 0.00 0.00 97 1015.9
20190817112504 66 273 0.0 1.0 0.00 0.00 0.00 97 1015.9
20190817112004 66 0 0.0 0.0 0.00 0.00 0.00 97 1015.9
20190817111506 65 0 0.0 0.0 0.00 0.00 0.00 97 1015.8
20190817111004 65 0 0.0 0.0 0.00 0.00 0.00 97 1015.7
20190817110505 65 0 0.0 0.0 0.00 0.00 0.00 97 1015.6
20190817110005 65 0 0.0 0.0 0.00 0.00 0.00 97 1015.7
20190817105504 65 0 0.0 0.0 0.00 0.00 0.00 97 1015.6
20190817105005 65 0 0.0 0.0 0.00 0.00 0.00 97 1015.6
20190817104505 65 0 0.0 0.0 0.00 0.00 0.00 97 1015.5
20190817104004 65 0 0.0 0.0 0.00 0.00 0.00 97 1015.6
20190817103505 65 0 0.0 0.0 0.00 0.00 0.00 97 1015.6
20190817103005 65 0 0.0 0.0 0.00 0.00 0.00 97 1015.7
20190817102505 65 0 0.0 0.0 0.00 0.00 0.00 97 1015.7
20190817102005 65 0 0.0 0.0 0.00 0.00 0.00 97 1015.8
20190817101505 66 0 0.0 0.0 0.00 0.00 0.00 97 1015.7
20190817101005 66 0 0.0 0.0 0.00 0.00 0.00 96 1015.7
20190817100504 66 0 0.0 0.0 0.00 0.00 0.00 96 1015.6
20190817100005 66 0 0.0 0.0 0.00 0.00 0.00 96 1015.6
20190817095504 66 0 0.0 0.0 0.00 0.00 0.00 96 1015.5
20190817095004 66 0 0.0 0.0 0.00 0.00 0.00 97 1015.5
20190817094505 66 0 0.0 0.0 0.00 0.00 0.00 97 1015.5
20190817094005 66 0 0.0 0.0 0.00 0.00 0.00 97 1015.5
20190817093505 66 0 0.0 0.0 0.00 0.00 0.00 97 1015.6
20190817093005 66 0 0.0 0.0 0.00 0.00 0.00 96 1015.7
20190817092504 66 0 0.0 0.0 0.00 0.00 0.00 96 1015.8
20190817092005 66 0 0.0 0.0 0.00 0.00 0.00 96 1015.7
20190817091512 66 0 0.0 0.0 0.00 0.00 0.00 96 1015.7
20190817091004 66 0 0.0 0.0 0.00 0.00 0.00 96 1015.7
20190817090505 66 0 0.0 0.0 0.00 0.00 0.00 96 1015.8
20190817090004 66 0 0.0 0.0 0.00 0.00 0.00 96 1015.8
20190817085505 66 0 0.0 0.0 0.00 0.00 0.00 96 1015.9
20190817085006 66 0 0.0 0.0 0.00 0.00 0.00 96 1015.9
20190817084505 66 0 0.0 0.0 0.00 0.00 0.00 96 1015.9
20190817084005 66 0 0.0 0.0 0.00 0.00 0.00 97 1015.9
20190817083504 66 0 0.0 0.0 0.00 0.00 0.00 97 1015.9
20190817083005 66 0 0.0 0.0 0.00 0.00 0.00 97 1015.9
20190817082504 66 0 0.0 0.0 0.00 0.00 0.00 97 1015.9
20190817082005 66 0 0.0 0.0 0.00 0.00 0.00 97 1015.8
20190817081505 66 0 0.0 0.0 0.00 0.00 0.00 96 1015.8
20190817081004 66 0 0.0 0.0 0.00 0.00 0.00 96 1015.8
20190817080505 66 0 0.0 0.0 0.00 0.00 0.00 96 1015.8
20190817080005 66 0 0.0 0.0 0.00 0.00 0.00 96 1015.8
20190817075504 66 0 0.0 0.0 0.00 0.00 0.00 96 1015.8
20190817075005 66 0 0.0 0.0 0.00 0.00 0.00 96 1015.7
20190817074504 67 0 0.0 0.0 0.00 0.00 0.00 96 1015.7
20190817074005 67 0 0.0 0.0 0.00 0.00 0.00 96 1015.7
20190817073504 66 0 0.0 0.0 0.00 0.00 0.00 96 1015.8
20190817073004 67 0 0.0 0.0 0.00 0.00 0.00 96 1015.8
20190817072505 67 0 0.0 0.0 0.00 0.00 0.00 96 1015.8
20190817072005 67 0 0.0 0.0 0.00 0.00 0.00 96 1015.8
20190817071505 67 0 0.0 0.0 0.00 0.00 0.00 96 1015.8
20190817071005 67 0 0.0 0.0 0.00 0.00 0.00 96 1015.7
20190817070504 67 0 0.0 0.0 0.00 0.00 0.00 96 1015.7
20190817070005 67 0 0.0 0.0 0.00 0.00 0.00 96 1015.7
20190817065504 67 0 0.0 0.0 0.00 0.00 0.00 96 1015.7
20190817065005 67 0 0.0 0.0 0.00 0.00 0.00 96 1015.6
20190817064505 67 0 0.0 0.0 0.00 0.00 0.00 96 1015.6
20190817064004 67 0 0.0 0.0 0.00 0.00 0.00 96 1015.6
20190817063517 67 0 0.0 0.0 0.00 0.00 0.00 95 1015.6
20190817063004 67 0 0.0 0.0 0.00 0.00 0.00 95 1015.6
20190817062505 67 0 0.0 0.0 0.00 0.00 0.00 95 1015.5
20190817062004 67 0 0.0 0.0 0.00 0.00 0.00 95 1015.5
20190817061504 67 0 0.0 0.0 0.00 0.00 0.00 95 1015.6
20190817061005 67 0 0.0 0.0 0.00 0.00 0.00 95 1015.6
20190817060504 68 0 0.0 0.0 0.00 0.00 0.00 95 1015.7
20190817060005 68 0 0.0 0.0 0.00 0.00 0.00 95 1015.8
20190817055504 68 0 0.0 0.0 0.00 0.00 0.00 95 1015.8
20190817055005 68 0 0.0 0.0 0.00 0.00 0.00 95 1015.8
20190817054505 68 0 0.0 0.0 0.00 0.00 0.00 94 1015.8
20190817054005 68 0 0.0 0.0 0.00 0.00 0.00 94 1015.9
20190817053504 68 0 0.0 0.0 0.00 0.00 0.00 94 1015.9
20190817053005 68 0 0.0 0.0 0.00 0.00 0.00 94 1016.0
20190817052504 68 0 0.0 0.0 0.00 0.00 0.00 94 1016.0
20190817052005 68 0 0.0 0.0 0.00 0.00 0.00 94 1016.0
20190817051504 68 0 0.0 0.0 0.00 0.00 0.00 94 1016.1
20190817051004 68 0 0.0 0.0 0.00 0.00 0.00 94 1016.2
20190817050504 69 0 0.0 0.0 0.00 0.00 0.00 94 1016.2
20190817050005 69 0 0.0 0.0 0.00 0.00 0.00 94 1016.3
20190817045505 69 0 0.0 0.0 0.00 0.00 0.00 94 1016.3
20190817045004 69 0 0.0 0.0 0.00 0.00 0.00 94 1016.3
20190817044504 69 0 0.0 0.0 0.00 0.00 0.00 94 1016.3
20190817044005 69 0 0.0 0.0 0.00 0.00 0.00 93 1016.2
20190817043504 69 0 0.0 0.0 0.00 0.00 0.00 93 1016.1
20190817043005 69 0 0.0 0.0 0.00 0.00 0.00 93 1016.1
20190817042504 69 0 0.0 0.0 0.00 0.00 0.00 93 1016.1
20190817042004 69 0 0.0 0.0 0.00 0.00 0.00 93 1016.1
20190817041504 70 0 0.0 0.0 0.00 0.00 0.00 93 1016.1
20190817041004 70 0 0.0 0.0 0.00 0.00 0.00 93 1016.1
20190817040505 70 0 0.0 0.0 0.00 0.00 0.00 93 1016.1
20190817040006 70 0 0.0 0.0 0.00 0.00 0.00 93 1016.1
20190817035504 70 0 0.0 0.0 0.00 0.00 0.00 93 1016.0
20190817035005 70 273 0.0 1.0 0.00 0.00 0.00 93 1015.9
20190817034504 70 273 0.0 1.0 0.00 0.00 0.00 93 1015.9
20190817034005 70 0 0.0 0.0 0.00 0.00 0.00 93 1015.8
20190817033505 70 0 0.0 0.0 0.00 0.00 0.00 93 1015.9
20190817033004 70 0 0.0 0.0 0.00 0.00 0.00 93 1015.8
20190817032505 70 0 0.0 0.0 0.00 0.00 0.00 93 1015.8
20190817032004 70 0 0.0 0.0 0.00 0.00 0.00 92 1015.7
20190817031504 70 0 0.0 0.0 0.00 0.00 0.00 92 1015.7
20190817031005 70 0 0.0 0.0 0.00 0.00 0.00 92 1015.7
20190817030504 71 0 0.0 0.0 0.00 0.00 0.00 92 1015.7
20190817030005 71 0 0.0 0.0 0.00 0.00 0.00 91 1015.6
20190817025504 71 0 0.0 0.0 0.00 0.00 0.00 91 1015.6
20190817025004 71 0 0.0 0.0 0.00 0.00 0.00 91 1015.6
20190817024505 71 0 0.0 0.0 0.00 0.00 0.00 91 1015.6
20190817024004 71 0 0.0 0.0 0.00 0.00 0.00 90 1015.6
20190817023505 72 0 0.0 0.0 0.00 0.00 0.00 90 1015.6
20190817023006 72 0 0.0 0.0 0.00 0.00 0.00 90 1015.6
20190817022504 72 0 0.0 0.0 0.00 0.00 0.00 90 1015.5
20190817022005 72 0 0.0 0.0 0.00 0.00 0.00 89 1015.7
20190817021504 72 0 0.0 0.0 0.00 0.00 0.00 89 1015.7
20190817021004 72 0 0.0 0.0 0.00 0.00 0.00 88 1015.6
20190817020505 73 0 0.0 0.0 0.00 0.00 0.00 88 1015.6
20190817020018 73 0 0.0 0.0 0.00 0.00 0.00 88 1015.6
20190817015504 73 0 0.0 0.0 0.00 0.00 0.00 87 1015.6
20190817015005 73 0 0.0 0.0 0.00 0.00 0.00 87 1015.5
20190817014504 74 0 0.0 0.0 0.00 0.00 0.00 87 1015.6
20190817014005 74 0 0.0 0.0 0.00 0.00 0.00 86 1015.6
20190817013505 74 0 0.0 0.0 0.00 0.00 0.00 86 1015.5
20190817013004 74 0 0.0 0.0 0.00 0.00 0.00 85 1015.5
20190817012505 75 0 0.0 0.0 0.00 0.00 0.00 84 1015.4
20190817012004 75 0 0.0 0.0 0.00 0.00 0.00 84 1015.4
20190817011504 75 0 0.0 0.0 0.00 0.00 0.00 83 1015.3
20190817011005 76 0 0.0 0.0 0.00 0.00 0.00 83 1015.2
20190817010504 76 0 0.0 0.0 0.00 0.00 0.00 82 1015.2
20190817010006 76 0 0.0 0.0 0.00 0.00 0.00 81 1015.1
20190817005504 77 0 0.0 0.0 0.00 0.00 0.00 80 1015.2
20190817005005 77 0 0.0 0.0 0.00 0.00 0.00 80 1015.2
20190817004504 78 0 0.0 0.0 0.00 0.00 0.00 79 1015.2
20190817004005 78 0 0.0 0.0 0.00 0.00 0.00 78 1015.1
20190817003505 78 0 0.0 0.0 0.00 0.00 0.00 76 1015.0
20190817003005 79 0 0.0 0.0 0.00 0.00 0.00 76 1015.0
20190817002505 80 0 0.0 0.0 0.00 0.00 0.00 75 1015.0
20190817002004 80 0 0.0 0.0 0.00 0.00 0.00 73 1015.1
20190817001504 81 0 0.0 0.0 0.00 0.00 0.00 72 1015.2
20190817001005 81 0 0.0 0.0 0.00 0.00 0.00 70 1015.2
20190817000504 82 0 0.0 0.0 0.00 0.00 0.00 68 1015.1
20190817000006 82 0 0.0 0.0 0.00 0.00 0.00 67 1015.0
20190816235504 83 0 0.0 0.0 0.00 0.00 0.00 65 1015.0
20190816235004 83 0 0.0 0.0 0.00 0.00 0.00 64 1015.0
20190816234505 84 0 0.0 0.0 0.00 0.00 0.00 63 1015.0
20190816234004 84 0 0.0 0.0 0.00 0.00 0.00 61 1015.0
20190816233505 85 0 0.0 0.0 0.00 0.00 0.00 60 1015.0
20190816233004 85 273 0.0 1.0 0.00 0.00 0.00 58 1015.1
20190816232504 85 273 0.0 1.0 0.00 0.00 0.00 57 1015.0
20190816232005 86 273 0.0 2.0 0.00 0.00 0.00 56 1015.0
20190816231504 86 273 0.0 2.0 0.00 0.00 0.00 55 1015.0
20190816231005 86 273 0.0 2.0 0.00 0.00 0.00 54 1015.0
20190816230504 87 273 0.0 3.0 0.00 0.00 0.00 54 1015.0
20190816230004 87 269 1.0 3.0 0.00 0.00 0.00 53 1015.0
20190816225505 88 250 2.0 5.0 0.00 0.00 0.00 53 1015.1
20190816225004 88 233 2.0 5.0 0.00 0.00 0.00 52 1015.1
20190816224505 88 245 2.0 4.0 0.00 0.00 0.00 52 1015.0
20190816224006 88 262 2.0 4.0 0.00 0.00 0.00 51 1015.0
20190816223504 88 259 2.0 4.0 0.00 0.00 0.00 52 1015.0
20190816223004 89 249 2.0 5.0 0.00 0.00 0.00 50 1015.1
20190816222504 89 238 2.0 5.0 0.00 0.00 0.00 51 1015.2
20190816222005 89 230 1.0 4.0 0.00 0.00 0.00 50 1015.2
20190816221504 89 230 1.0 4.0 0.00 0.00 0.00 51 1015.1
20190816221004 89 230 1.0 4.0 0.00 0.00 0.00 51 1015.2
20190816220504 89 230 1.0 4.0 0.00 0.00 0.00 51 1015.2
20190816220004 89 231 1.0 3.0 0.00 0.00 0.00 49 1015.2
20190816215504 88 232 2.0 5.0 0.00 0.00 0.00 50 1015.2
20190816215005 88 234 2.0 5.0 0.00 0.00 0.00 49 1015.2
20190816214504 88 236 2.0 7.0 0.00 0.00 0.00 50 1015.2
20190816214005 89 241 3.0 7.0 0.00 0.00 0.00 50 1015.3
20190816213504 89 244 2.0 6.0 0.00 0.00 0.00 51 1015.2
20190816213004 89 222 1.0 6.0 0.00 0.00 0.00 52 1015.3
20190816212505 89 245 2.0 6.0 0.00 0.00 0.00 52 1015.3
20190816212004 89 251 2.0 7.0 0.00 0.00 0.00 50 1015.3
20190816211505 89 236 3.0 7.0 0.00 0.00 0.00 50 1015.3
20190816211005 89 222 3.0 6.0 0.00 0.00 0.00 49 1015.3
20190816210504 89 224 3.0 5.0 0.00 0.00 0.00 49 1015.2
20190816210005 89 229 2.0 5.0 0.00 0.00 0.00 49 1015.2
20190816205504 89 205 1.0 6.0 0.00 0.00 0.00 51 1015.3
20190816205005 88 194 1.0 6.0 0.00 0.00 0.00 51 1015.2
20190816204504 88 21 0.0 3.0 0.00 0.00 0.00 52 1015.4
20190816204004 88 20 0.0 2.0 0.00 0.00 0.00 54 1015.5
20190816203504 87 19 0.0 1.0 0.00 0.00 0.00 54 1015.6
20190816203004 87 20 0.0 2.0 0.00 0.00 0.00 53 1015.7
20190816202504 86 20 0.0 3.0 0.00 0.00 0.00 54 1015.7
20190816202004 86 20 0.0 3.0 0.00 0.00 0.00 54 1015.8
20190816201504 86 21 0.0 3.0 0.00 0.00 0.00 56 1015.9
20190816201004 86 21 0.0 1.0 0.00 0.00 0.00 56 1016.0
20190816200504 87 21 0.0 1.0 0.00 0.00 0.00 57 1016.0
20190816200005 87 21 0.0 2.0 0.00 0.00 0.00 56 1016.0
20190816195504 87 22 0.0 2.0 0.00 0.00 0.00 58 1016.1
20190816195004 87 21 0.0 3.0 0.00 0.00 0.00 56 1016.2
20190816194505 87 24 0.0 3.0 0.00 0.00 0.00 54 1016.2
20190816194004 88 18 1.0 4.0 0.00 0.00 0.00 51 1016.0
20190816193504 88 6 1.0 4.0 0.00 0.00 0.00 54 1016.1
20190816193005 88 299 0.0 3.0 0.00 0.00 0.00 54 1016.2
20190816192504 88 341 1.0 4.0 0.00 0.00 0.00 54 1016.2
20190816192004 88 8 0.0 4.0 0.00 0.00 0.00 53 1016.2
20190816191504 88 37 0.0 2.0 0.00 0.00 0.00 55 1016.2
20190816191004 88 17 0.0 2.0 0.00 0.00 0.00 53 1016.3
20190816190505 88 236 0.0 3.0 0.00 0.00 0.00 50 1016.3
20190816190005 88 129 0.0 3.0 0.00 0.00 0.00 51 1016.4
20190816185504 88 93 0.0 3.0 0.00 0.00 0.00 56 1016.4
20190816185005 87 181 1.0 4.0 0.00 0.00 0.00 54 1016.5
20190816184504 87 173 1.0 4.0 0.00 0.00 0.00 56 1016.3
20190816184005 87 168 1.0 5.0 0.00 0.00 0.00 52 1016.4
20190816183504 87 215 2.0 6.0 0.00 0.00 0.00 52 1016.3
20190816183005 87 237 2.0 6.0 0.00 0.00 0.00 53 1016.4
20190816182504 87 212 2.0 6.0 0.00 0.00 0.00 53 1016.4
20190816182004 88 228 2.0 6.0 0.00 0.00 0.00 49 1016.4
20190816181505 88 246 2.0 5.0 0.00 0.00 0.00 49 1016.4
20190816181004 88 241 1.0 5.0 0.00 0.00 0.00 51 1016.3
20190816180504 88 247 2.0 7.0 0.00 0.00 0.00 51 1016.3
20190816180004 88 274 2.0 7.0 0.00 0.00 0.00 50 1016.2
20190816175504 88 302 1.0 4.0 0.00 0.00 0.00 51 1016.2
20190816175005 88 268 0.0 3.0 0.00 0.00 0.00 53 1016.4
20190816174504 87 226 1.0 6.0 0.00 0.00 0.00 54 1016.3
20190816174005 87 251 2.0 6.0 0.00 0.00 0.00 54 1016.4
20190816173504 87 244 2.0 6.0 0.00 0.00 0.00 53 1016.5
20190816173004 87 235 2.0 7.0 0.00 0.00 0.00 55 1016.5
20190816172505 87 253 2.0 8.0 0.00 0.00 0.00 53 1016.5
20190816172006 88 254 1.0 8.0 0.00 0.00 0.00 52 1016.6
20190816171504 87 222 1.0 7.0 0.00 0.00 0.00 54 1016.7
20190816171004 87 247 3.0 7.0 0.00 0.00 0.00 54 1016.8
20190816170504 87 264 2.0 7.0 0.00 0.00 0.00 53 1016.8
20190816170005 87 240 1.0 6.0 0.00 0.00 0.00 58 1016.8
20190816165504 87 243 1.0 6.0 0.00 0.00 0.00 62 1016.9
20190816165004 87 355 2.0 6.0 0.00 0.00 0.00 55 1016.8
20190816164504 87 30 1.0 4.0 0.00 0.00 0.00 55 1016.9
20190816164004 86 20 1.0 4.0 0.00 0.00 0.00 59 1016.8
20190816163504 86 55 1.0 4.0 0.00 0.00 0.00 56 1016.9
20190816163004 85 98 0.0 4.0 0.00 0.00 0.00 58 1016.9
20190816162504 86 58 0.0 3.0 0.00 0.00 0.00 60 1017.0
20190816162005 86 24 0.0 3.0 0.00 0.00 0.00 59 1017.0
20190816161504 86 347 1.0 3.0 0.00 0.00 0.00 57 1016.9
20190816161004 86 320 1.0 3.0 0.00 0.00 0.00 60 1016.9
20190816160504 86 269 1.0 4.0 0.00 0.00 0.00 58 1016.9
20190816160004 87 280 1.0 4.0 0.00 0.00 0.00 57 1016.9
20190816155505 87 358 2.0 6.0 0.00 0.00 0.00 58 1016.9
20190816155004 87 3 2.0 6.0 0.00 0.00 0.00 62 1016.9
20190816154505 86 26 1.0 5.0 0.00 0.00 0.00 62 1017.0
20190816154004 86 28 2.0 5.0 0.00 0.00 0.00 62 1017.0
20190816153504 85 224 2.0 5.0 0.00 0.00 0.00 61 1017.1
20190816153005 85 194 2.0 6.0 0.00 0.00 0.00 65 1017.2
20190816152504 85 200 1.0 6.0 0.00 0.00 0.00 64 1017.2
20190816152004 85 280 1.0 4.0 0.00 0.00 0.00 63 1017.1
20190816151504 84 238 0.0 3.0 0.00 0.00 0.00 67 1017.2
20190816151004 84 233 0.0 3.0 0.00 0.00 0.00 69 1017.1
20190816150504 83 233 1.0 4.0 0.00 0.00 0.00 67 1017.1
20190816150004 83 233 2.0 4.0 0.00 0.00 0.00 68 1017.1
20190816145504 83 233 1.0 4.0 0.00 0.00 0.00 67 1017.2
20190816145005 83 230 0.0 2.0 0.00 0.00 0.00 68 1017.0
20190816144504 82 214 0.0 4.0 0.00 0.00 0.00 69 1017.0
20190816144004 82 181 0.0 4.0 0.00 0.00 0.00 69 1017.0
20190816143504 81 125 0.0 2.0 0.00 0.00 0.00 70 1017.0
20190816143004 81 119 0.0 2.0 0.00 0.00 0.00 73 1017.0
20190816142504 80 113 0.0 2.0 0.00 0.00 0.00 77 1017.0
20190816142004 78 102 0.0 2.0 0.00 0.00 0.00 79 1017.0
20190816141505 77 99 0.0 3.0 0.00 0.00 0.00 79 1016.8
20190816141004 76 88 0.0 3.0 0.00 0.00 0.00 81 1016.9
20190816140504 76 350 0.0 2.0 0.00 0.00 0.00 82 1016.8
20190816140005 75 315 0.0 3.0 0.00 0.00 0.00 83 1016.8
20190816135504 74 318 0.0 3.0 0.00 0.00 0.00 86 1016.9
20190816135004 74 355 0.0 2.0 0.00 0.00 0.00 87 1017.0
20190816134504 73 355 0.0 2.0 0.00 0.00 0.00 88 1017.0
20190816134004 72 355 0.0 2.0 0.00 0.00 0.00 88 1017.0
20190816133504 72 355 0.0 2.0 0.00 0.00 0.00 90 1017.1
20190816133004 72 355 0.0 1.0 0.00 0.00 0.00 91 1017.0
20190816132504 71 355 0.0 1.0 0.00 0.00 0.00 93 1017.0
20190816132004 70 355 0.0 1.0 0.00 0.00 0.00 94 1017.0
20190816131504 70 0 0.0 0.0 0.00 0.00 0.00 95 1016.9
20190816131004 69 0 0.0 0.0 0.00 0.00 0.00 95 1016.8